createdAt,value
2019-03-17T00:01:57.132Z,99.90
2019-03-17T00:04:31.308Z,99.90
2019-03-17T00:06:54.568Z,99.90
2019-03-17T00:09:23.660Z,99.90
2019-03-17T00:11:52.746Z,99.90
2019-03-17T00:14:21.777Z,99.90
2019-03-17T00:16:50.643Z,99.90
2019-03-17T00:19:20.403Z,99.90
2019-03-17T00:21:49.297Z,99.90
2019-03-17T00:24:18.404Z,99.90
2019-03-17T00:26:47.163Z,99.90
2019-03-17T00:29:16.115Z,99.90
2019-03-17T00:31:44.975Z,99.90
2019-03-17T00:34:14.124Z,99.90
2019-03-17T00:36:42.980Z,99.90
2019-03-17T00:39:12.761Z,99.90
2019-03-17T00:41:42.222Z,99.90
2019-03-17T00:44:11.321Z,99.90
2019-03-17T00:46:40.600Z,99.90
2019-03-17T00:49:09.494Z,99.90
2019-03-17T00:51:38.688Z,99.90
2019-03-17T00:54:07.691Z,99.90
2019-03-17T00:56:36.843Z,99.90
2019-03-17T00:59:05.724Z,99.90
2019-03-17T01:01:34.591Z,99.90
2019-03-17T01:04:03.828Z,99.90
2019-03-17T01:06:32.909Z,99.90
2019-03-17T01:09:04.212Z,99.90
2019-03-17T01:11:36.409Z,99.90
2019-03-17T01:14:05.357Z,99.90
2019-03-17T01:16:34.677Z,99.90
2019-03-17T01:19:04.191Z,99.90
2019-03-17T01:21:33.967Z,99.90
2019-03-17T01:24:03.348Z,99.90
2019-03-17T01:26:51.337Z,99.90
2019-03-17T01:29:20.412Z,99.90
2019-03-17T01:31:50.601Z,99.90
2019-03-17T01:34:19.625Z,99.90
2019-03-17T01:36:49.641Z,99.90
2019-03-17T01:39:18.525Z,99.90
2019-03-17T01:41:48.381Z,99.90
2019-03-17T01:44:17.608Z,99.90
2019-03-17T01:46:46.422Z,99.90
2019-03-17T01:49:16.364Z,99.90
2019-03-17T01:51:45.137Z,99.90
2019-03-17T01:54:14.321Z,99.90
2019-03-17T01:56:44.930Z,99.90
2019-03-17T01:59:14.366Z,99.90
2019-03-17T02:01:43.614Z,99.90
2019-03-17T02:04:12.772Z,99.90
2019-03-17T02:06:42.115Z,99.90
2019-03-17T02:09:11.219Z,99.90
2019-03-17T02:11:39.989Z,99.90
2019-03-17T02:14:09.276Z,99.90
2019-03-17T02:16:38.448Z,99.90
2019-03-17T02:19:07.327Z,99.90
2019-03-17T02:21:36.327Z,99.90
2019-03-17T02:24:05.665Z,99.90
2019-03-17T02:26:34.541Z,99.90
2019-03-17T02:29:03.665Z,99.90
2019-03-17T02:31:33.860Z,99.90
2019-03-17T02:34:02.810Z,99.90
2019-03-17T02:36:31.901Z,99.90
2019-03-17T02:39:00.797Z,99.90
2019-03-17T02:41:29.888Z,99.90
2019-03-17T02:43:59.134Z,99.90
2019-03-17T02:46:28.129Z,99.90
2019-03-17T02:48:57.281Z,99.90
2019-03-17T02:51:26.484Z,99.90
2019-03-17T02:53:56.010Z,99.90
2019-03-17T02:56:24.944Z,99.90
2019-03-17T02:58:53.723Z,99.90
2019-03-17T03:01:22.618Z,99.90
2019-03-17T03:03:51.419Z,99.90
2019-03-17T03:06:20.182Z,99.90
2019-03-17T03:08:49.498Z,99.90
2019-03-17T03:11:19.998Z,99.90
2019-03-17T03:13:48.862Z,99.90
2019-03-17T03:16:17.583Z,99.90
2019-03-17T03:18:47.068Z,99.90
2019-03-17T03:21:16.329Z,99.90
2019-03-17T03:23:45.627Z,99.90
2019-03-17T03:26:14.693Z,99.90
2019-03-17T03:28:43.713Z,99.90
2019-03-17T03:31:12.814Z,99.90
2019-03-17T03:33:41.641Z,99.90
2019-03-17T03:36:12.059Z,99.90
2019-03-17T03:38:42.137Z,99.90
2019-03-17T03:41:11.197Z,99.90
2019-03-17T03:43:41.232Z,99.90
2019-03-17T03:46:10.096Z,99.90
2019-03-17T03:48:39.073Z,99.90
2019-03-17T03:51:07.929Z,99.90
2019-03-17T03:53:37.007Z,99.90
2019-03-17T03:56:06.469Z,99.90
2019-03-17T03:58:35.793Z,99.90
2019-03-17T04:01:05.338Z,99.90
2019-03-17T04:03:34.125Z,99.90
2019-03-17T04:06:03.239Z,99.90
2019-03-17T04:08:32.059Z,99.90
2019-03-17T04:11:00.780Z,99.90
2019-03-17T04:13:29.588Z,99.90
2019-03-17T04:15:58.589Z,99.90
2019-03-17T04:18:27.541Z,99.90
2019-03-17T04:20:56.340Z,99.90
2019-03-17T04:23:25.544Z,99.90
2019-03-17T04:25:54.748Z,99.90
2019-03-17T04:28:23.536Z,99.90
2019-03-17T04:30:53.005Z,99.90
2019-03-17T04:33:21.774Z,99.90
2019-03-17T04:35:51.909Z,99.90
2019-03-17T04:38:20.674Z,99.90
2019-03-17T04:40:49.524Z,99.90
2019-03-17T04:43:18.340Z,99.90
2019-03-17T04:45:47.495Z,99.90
2019-03-17T04:48:16.389Z,99.90
2019-03-17T04:50:45.381Z,99.90
2019-03-17T04:53:14.091Z,99.90
2019-03-17T04:55:43.835Z,99.90
2019-03-17T04:58:12.888Z,99.90
2019-03-17T05:00:41.803Z,99.90
2019-03-17T05:03:11.033Z,99.90
2019-03-17T05:05:39.943Z,99.90
2019-03-17T05:08:08.860Z,99.90
2019-03-17T05:10:38.142Z,99.90
2019-03-17T05:13:07.016Z,99.90
2019-03-17T05:15:35.877Z,99.90
2019-03-17T05:18:04.636Z,99.90
2019-03-17T05:20:33.948Z,99.90
2019-03-17T05:23:05.657Z,99.90
2019-03-17T05:25:33.228Z,99.90
2019-03-17T05:28:02.250Z,99.90
2019-03-17T05:30:31.224Z,99.90
2019-03-17T05:33:00.096Z,99.90
2019-03-17T05:35:29.376Z,99.90
2019-03-17T05:37:58.315Z,99.90
2019-03-17T05:40:30.624Z,99.90
2019-03-17T05:42:59.580Z,99.90
2019-03-17T05:45:32.724Z,99.90
2019-03-17T05:48:01.760Z,99.90
2019-03-17T05:50:31.172Z,99.90
2019-03-17T05:53:01.092Z,99.90
2019-03-17T05:55:30.046Z,99.90
2019-03-17T05:57:59.176Z,99.90
2019-03-17T06:00:30.176Z,99.90
2019-03-17T06:02:59.116Z,99.90
2019-03-17T06:05:28.219Z,99.90
2019-03-17T06:07:57.641Z,99.90
2019-03-17T06:10:26.716Z,99.90
2019-03-17T06:12:56.506Z,99.90
2019-03-17T06:15:25.853Z,99.90
2019-03-17T06:17:55.400Z,99.90
2019-03-17T06:20:24.286Z,99.90
2019-03-17T06:22:55.781Z,99.90
2019-03-17T06:25:24.544Z,99.90
2019-03-17T06:27:53.309Z,99.90
2019-03-17T06:30:22.676Z,99.90
2019-03-17T06:32:51.398Z,99.90
2019-03-17T06:35:20.611Z,99.90
2019-03-17T06:37:49.636Z,99.90
2019-03-17T06:40:18.449Z,99.90
2019-03-17T06:42:47.401Z,99.90
2019-03-17T06:45:18.208Z,99.90
2019-03-17T06:47:47.013Z,99.90
2019-03-17T06:50:16.017Z,99.90
2019-03-17T06:52:45.135Z,99.90
2019-03-17T06:55:14.044Z,99.90
2019-03-17T06:57:42.804Z,99.90
2019-03-17T07:00:12.190Z,99.90
2019-03-17T07:02:41.145Z,99.90
2019-03-17T07:05:12.929Z,99.90
2019-03-17T07:07:44.366Z,99.90
2019-03-17T07:10:12.341Z,99.90
2019-03-17T07:12:46.388Z,99.90
2019-03-17T07:15:15.180Z,99.90
2019-03-17T07:17:44.032Z,99.90
2019-03-17T07:20:13.126Z,99.90
2019-03-17T07:22:41.951Z,99.90
2019-03-17T07:25:11.103Z,99.90
2019-03-17T07:27:41.155Z,99.90
2019-03-17T07:30:12.059Z,99.90
2019-03-17T07:32:41.400Z,99.90
2019-03-17T07:35:10.558Z,99.90
2019-03-17T07:37:39.484Z,99.90
2019-03-17T07:40:09.377Z,99.90
2019-03-17T07:42:38.202Z,99.90
2019-03-17T07:45:07.397Z,99.90
2019-03-17T07:47:36.181Z,99.90
2019-03-17T07:50:05.893Z,99.90
2019-03-17T07:52:36.087Z,99.90
2019-03-17T07:55:05.661Z,99.90
2019-03-17T07:57:34.644Z,99.90
2019-03-17T08:00:05.551Z,99.90
2019-03-17T08:02:34.340Z,99.90
2019-03-17T08:05:03.299Z,99.90
2019-03-17T08:07:32.164Z,99.90
2019-03-17T08:10:01.184Z,99.90
2019-03-17T08:12:30.082Z,99.90
2019-03-17T08:14:59.448Z,99.90
2019-03-17T08:17:28.591Z,99.90
2019-03-17T08:19:57.640Z,99.90
2019-03-17T08:22:26.484Z,99.90
2019-03-17T08:24:55.260Z,99.90
2019-03-17T08:27:24.131Z,99.90
2019-03-17T08:29:52.993Z,99.90
2019-03-17T08:32:21.784Z,99.90
2019-03-17T08:34:50.842Z,99.90
2019-03-17T08:37:19.584Z,99.90
2019-03-17T08:39:49.040Z,99.90
2019-03-17T08:42:17.952Z,99.90
2019-03-17T08:44:46.672Z,99.90
2019-03-17T08:47:15.584Z,99.90
2019-03-17T08:49:44.481Z,99.90
2019-03-17T08:52:13.261Z,99.90
2019-03-17T08:54:42.555Z,99.90
2019-03-17T08:57:11.360Z,99.90
2019-03-17T08:59:40.682Z,99.90
2019-03-17T09:02:10.596Z,99.90
2019-03-17T09:04:39.748Z,99.90
2019-03-17T09:07:10.253Z,99.90
2019-03-17T09:09:39.193Z,99.90
2019-03-17T09:12:07.976Z,99.90
2019-03-17T09:14:37.087Z,99.90
2019-03-17T09:17:14.263Z,99.90
2019-03-17T09:19:37.541Z,99.90
2019-03-17T09:22:06.287Z,99.90
2019-03-17T09:24:35.100Z,99.90
2019-03-17T09:27:03.912Z,99.90
2019-03-17T09:29:32.686Z,99.90
2019-03-17T09:32:01.492Z,99.90
2019-03-17T09:34:30.444Z,99.90
2019-03-17T09:36:59.781Z,99.90
2019-03-17T09:39:28.908Z,99.90
2019-03-17T09:41:57.747Z,99.90
2019-03-17T09:44:27.216Z,99.90
2019-03-17T09:46:56.330Z,99.90
2019-03-17T09:49:25.109Z,99.90
2019-03-17T09:51:53.892Z,99.90
2019-03-17T09:54:26.703Z,99.90
2019-03-17T09:56:55.748Z,99.90
2019-03-17T09:59:25.049Z,99.90
2019-03-17T10:01:54.078Z,99.90
2019-03-17T10:04:23.950Z,99.90
2019-03-17T10:06:52.954Z,99.90
2019-03-17T10:09:21.974Z,99.90
2019-03-17T10:11:50.703Z,99.90
2019-03-17T10:14:19.531Z,99.90
2019-03-17T10:16:48.474Z,99.90
2019-03-17T10:19:17.256Z,99.90
2019-03-17T10:21:46.496Z,99.90
2019-03-17T10:24:15.495Z,99.90
2019-03-17T10:26:45.245Z,99.90
2019-03-17T10:29:14.200Z,99.90
2019-03-17T10:31:43.027Z,99.90
2019-03-17T10:34:11.764Z,99.90
2019-03-17T10:36:41.155Z,99.90
2019-03-17T10:39:12.597Z,99.90
2019-03-17T10:41:40.701Z,99.90
2019-03-17T10:44:09.645Z,99.90
2019-03-17T10:46:38.404Z,99.90
2019-03-17T10:49:07.168Z,99.60
2019-03-17T10:51:36.400Z,97.90
2019-03-17T10:54:05.404Z,98.00
2019-03-17T10:56:34.228Z,98.30
2019-03-17T10:59:02.952Z,99.90
2019-03-17T11:01:31.853Z,99.90
2019-03-17T11:04:01.051Z,99.90
2019-03-17T11:06:30.115Z,98.50
2019-03-17T11:08:58.856Z,97.80
2019-03-17T11:11:28.843Z,99.30
2019-03-17T11:13:57.674Z,98.40
2019-03-17T11:16:26.487Z,98.70
2019-03-17T11:18:55.386Z,98.70
2019-03-17T11:21:24.608Z,97.90
2019-03-17T11:23:53.688Z,98.60
2019-03-17T11:26:22.839Z,99.90
2019-03-17T11:28:51.920Z,99.90
2019-03-17T11:31:20.873Z,99.90
2019-03-17T11:33:49.944Z,99.90
2019-03-17T11:36:20.344Z,99.00
2019-03-17T11:38:49.480Z,99.50
2019-03-17T11:41:37.468Z,99.00
2019-03-17T11:44:06.538Z,99.80
2019-03-17T11:46:35.333Z,99.30
2019-03-17T11:49:04.668Z,99.50
2019-03-17T11:51:33.734Z,98.20
2019-03-17T11:54:02.744Z,96.70
2019-03-17T11:56:31.969Z,96.80
2019-03-17T11:59:01.109Z,96.70
2019-03-17T12:01:30.223Z,96.60
2019-03-17T12:03:59.536Z,96.60
2019-03-17T12:06:28.682Z,97.60
2019-03-17T12:08:57.921Z,98.10
2019-03-17T12:11:27.073Z,97.50
2019-03-17T12:13:55.993Z,96.90
2019-03-17T12:16:25.174Z,98.90
2019-03-17T12:18:54.674Z,98.60
2019-03-17T12:21:23.640Z,99.50
2019-03-17T12:23:52.521Z,99.90
2019-03-17T12:26:22.001Z,99.90
2019-03-17T12:28:50.837Z,99.90
2019-03-17T12:31:19.598Z,99.90
2019-03-17T12:33:48.461Z,99.90
2019-03-17T12:36:18.964Z,99.90
2019-03-17T12:38:47.728Z,99.90
2019-03-17T12:41:16.603Z,99.90
2019-03-17T12:43:47.097Z,99.90
2019-03-17T12:46:15.988Z,99.90
2019-03-17T12:48:45.019Z,99.90
2019-03-17T12:51:13.796Z,99.90
2019-03-17T12:53:43.036Z,99.90
2019-03-17T12:56:12.096Z,99.90
2019-03-17T12:58:42.401Z,99.90
2019-03-17T13:01:11.208Z,99.90
2019-03-17T13:03:40.856Z,99.90
2019-03-17T13:06:09.614Z,99.90
2019-03-17T13:08:39.092Z,99.90
2019-03-17T13:11:07.910Z,99.40
2019-03-17T13:13:36.696Z,99.70
2019-03-17T13:16:06.192Z,99.90
2019-03-17T13:18:35.333Z,99.90
2019-03-17T13:21:04.352Z,99.60
2019-03-17T13:23:33.613Z,99.90
2019-03-17T13:26:02.608Z,99.70
2019-03-17T13:28:31.332Z,99.80
2019-03-17T13:31:00.536Z,99.90
2019-03-17T13:33:29.683Z,99.90
2019-03-17T13:35:58.468Z,99.70
2019-03-17T13:38:27.252Z,99.90
2019-03-17T13:40:56.011Z,99.90
2019-03-17T13:43:24.992Z,99.90
2019-03-17T13:45:53.797Z,99.90
2019-03-17T13:48:24.732Z,99.90
2019-03-17T13:50:54.183Z,99.90
2019-03-17T13:53:23.319Z,99.90
2019-03-17T13:55:52.332Z,99.90
2019-03-17T13:58:21.865Z,99.90
2019-03-17T14:00:50.633Z,99.90
2019-03-17T14:03:20.025Z,99.90
2019-03-17T14:05:49.477Z,99.90
2019-03-17T14:08:18.500Z,99.90
2019-03-17T14:10:47.505Z,99.90
2019-03-17T14:13:16.952Z,99.90
2019-03-17T14:15:45.780Z,99.90
2019-03-17T14:18:14.911Z,99.90
2019-03-17T14:20:45.384Z,99.90
2019-03-17T14:23:14.583Z,99.90
2019-03-17T14:25:43.330Z,99.90
2019-03-17T14:28:13.428Z,99.90
2019-03-17T14:30:43.649Z,99.90
2019-03-17T14:33:12.792Z,99.90
2019-03-17T14:35:42.864Z,99.90
2019-03-17T14:38:12.353Z,99.90
2019-03-17T14:40:52.793Z,99.90
2019-03-17T14:43:12.080Z,99.90
2019-03-17T14:45:41.076Z,99.90
2019-03-17T14:48:10.088Z,99.90
2019-03-17T14:50:41.271Z,99.90
2019-03-17T14:53:12.304Z,99.90
2019-03-17T14:55:41.140Z,99.90
2019-03-17T14:58:09.996Z,99.90
2019-03-17T15:00:38.986Z,99.90
2019-03-17T15:03:09.053Z,99.90
2019-03-17T15:05:38.709Z,99.90
2019-03-17T15:08:08.360Z,99.90
2019-03-17T15:10:37.155Z,99.90
2019-03-17T15:13:06.420Z,99.90
2019-03-17T15:15:35.688Z,99.90
2019-03-17T15:18:05.188Z,99.90
2019-03-17T15:20:34.483Z,99.90
2019-03-17T15:23:04.894Z,99.90
2019-03-17T15:25:33.620Z,99.90
2019-03-17T15:28:03.340Z,99.90
2019-03-17T15:30:32.172Z,99.90
2019-03-17T15:33:01.696Z,99.90
2019-03-17T15:35:30.519Z,99.90
2019-03-17T15:37:59.808Z,99.90
2019-03-17T15:40:28.620Z,99.90
2019-03-17T15:42:57.485Z,99.90
2019-03-17T15:45:26.748Z,99.90
2019-03-17T15:47:55.679Z,99.90
2019-03-17T15:50:24.640Z,99.90
2019-03-17T15:52:53.869Z,99.90
2019-03-17T15:55:22.979Z,99.90
2019-03-17T15:57:52.191Z,99.90
2019-03-17T16:00:25.278Z,99.90
2019-03-17T16:02:52.248Z,99.90
2019-03-17T16:05:21.504Z,99.90
2019-03-17T16:07:51.068Z,99.90
2019-03-17T16:10:20.683Z,99.90
2019-03-17T16:12:50.540Z,99.90
2019-03-17T16:15:19.507Z,99.90
2019-03-17T16:17:48.762Z,99.90
2019-03-17T16:20:18.636Z,99.90
2019-03-17T16:22:47.496Z,99.90
2019-03-17T16:25:17.028Z,99.90
2019-03-17T16:27:45.938Z,99.90
2019-03-17T16:30:18.122Z,99.90
2019-03-17T16:32:47.857Z,99.90
2019-03-17T16:35:17.564Z,99.90
2019-03-17T16:37:47.604Z,99.90
2019-03-17T16:40:17.737Z,99.90
2019-03-17T16:42:46.652Z,99.90
2019-03-17T16:45:15.780Z,99.90
2019-03-17T16:47:45.811Z,99.90
2019-03-17T16:50:16.086Z,99.90
2019-03-17T16:52:45.229Z,99.90
2019-03-17T16:55:14.425Z,99.90
2019-03-17T16:57:43.554Z,99.90
2019-03-17T17:00:14.936Z,99.90
2019-03-17T17:02:43.851Z,99.90
2019-03-17T17:05:13.798Z,99.90
2019-03-17T17:07:42.892Z,99.90
2019-03-17T17:10:13.654Z,99.90
2019-03-17T17:12:42.656Z,99.90
2019-03-17T17:15:14.497Z,99.90
2019-03-17T17:17:43.248Z,99.90
2019-03-17T17:20:14.468Z,99.90
2019-03-17T17:22:43.260Z,99.90
2019-03-17T17:25:12.568Z,99.90
2019-03-17T17:27:41.692Z,99.90
2019-03-17T17:30:12.429Z,99.90
2019-03-17T17:32:41.213Z,99.90
2019-03-17T17:35:10.788Z,99.90
2019-03-17T17:37:39.654Z,99.90
2019-03-17T17:40:11.344Z,99.90
2019-03-17T17:42:40.604Z,99.90
2019-03-17T17:45:12.036Z,99.90
2019-03-17T17:47:41.300Z,99.90
2019-03-17T17:50:11.540Z,99.90
2019-03-17T17:52:40.704Z,99.90
2019-03-17T17:55:09.513Z,99.90
2019-03-17T17:57:38.868Z,99.90
2019-03-17T18:00:09.255Z,99.90
2019-03-17T18:02:37.968Z,99.90
2019-03-17T18:05:07.229Z,99.90
2019-03-17T18:07:35.955Z,99.90
2019-03-17T18:10:05.510Z,99.90
2019-03-17T18:12:35.040Z,99.90
2019-03-17T18:15:04.661Z,99.90
2019-03-17T18:17:33.416Z,99.90
2019-03-17T18:20:02.839Z,99.90
2019-03-17T18:22:31.664Z,99.90
2019-03-17T18:25:00.887Z,99.90
2019-03-17T18:27:30.456Z,99.90
2019-03-17T18:29:59.269Z,99.90
2019-03-17T18:32:28.517Z,99.90
2019-03-17T18:34:57.372Z,99.90
2019-03-17T18:37:26.100Z,99.90
2019-03-17T18:39:55.108Z,99.90
2019-03-17T18:42:32.679Z,99.90
2019-03-17T18:44:54.723Z,99.90
2019-03-17T18:47:23.452Z,99.90
2019-03-17T18:49:52.227Z,99.90
2019-03-17T18:52:21.016Z,99.90
2019-03-17T18:54:49.793Z,99.90
2019-03-17T18:57:18.655Z,99.90
2019-03-17T18:59:47.548Z,99.90
2019-03-17T19:02:16.669Z,99.90
2019-03-17T19:04:47.783Z,99.90
2019-03-17T19:07:16.535Z,99.90
2019-03-17T19:09:45.281Z,99.90
2019-03-17T19:12:14.175Z,99.90
2019-03-17T19:14:43.256Z,99.90
2019-03-17T19:17:12.892Z,99.90
2019-03-17T19:19:42.252Z,99.90
2019-03-17T19:22:10.984Z,99.90
2019-03-17T19:24:40.211Z,99.90
2019-03-17T19:27:08.993Z,99.90
2019-03-17T19:29:38.117Z,99.90
2019-03-17T19:32:07.466Z,99.90
2019-03-17T19:34:36.820Z,99.90
2019-03-17T19:37:05.567Z,99.90
2019-03-17T19:39:34.467Z,99.90
2019-03-17T19:42:03.444Z,99.90
2019-03-17T19:44:32.218Z,99.90
2019-03-17T19:47:01.279Z,99.90
2019-03-17T19:49:30.523Z,99.90
2019-03-17T19:51:59.269Z,99.90
2019-03-17T19:54:29.792Z,99.90
2019-03-17T19:56:58.703Z,99.90
2019-03-17T19:59:27.581Z,99.90
2019-03-17T20:01:56.405Z,99.90
2019-03-17T20:04:30.866Z,99.90
2019-03-17T20:06:56.893Z,99.90
2019-03-17T20:09:26.332Z,99.90
2019-03-17T20:11:55.126Z,99.90
2019-03-17T20:14:23.943Z,99.90
2019-03-17T20:16:52.829Z,99.90
2019-03-17T20:19:21.592Z,99.90
2019-03-17T20:21:51.870Z,99.90
2019-03-17T20:24:20.592Z,99.90
2019-03-17T20:26:49.658Z,99.90
2019-03-17T20:29:18.664Z,99.90
2019-03-17T20:31:47.748Z,99.90
2019-03-17T20:34:16.711Z,99.90
2019-03-17T20:36:45.867Z,99.90
2019-03-17T20:39:14.620Z,99.90
2019-03-17T20:41:43.517Z,99.90
2019-03-17T20:44:12.365Z,99.90
2019-03-17T20:46:41.416Z,99.90
2019-03-17T20:49:10.209Z,99.90
2019-03-17T20:51:39.040Z,99.90
2019-03-17T20:54:08.003Z,99.90
2019-03-17T20:56:36.890Z,99.90
2019-03-17T20:59:05.698Z,99.90
2019-03-17T21:01:34.868Z,99.90
2019-03-17T21:04:03.636Z,99.90
2019-03-17T21:06:32.780Z,99.90
2019-03-17T21:09:01.617Z,99.90
2019-03-17T21:11:30.703Z,99.90
2019-03-17T21:13:59.416Z,99.90
2019-03-17T21:16:28.613Z,99.90
2019-03-17T21:18:57.808Z,99.90
2019-03-17T21:21:26.628Z,99.90
2019-03-17T21:23:55.800Z,99.90
2019-03-17T21:26:24.741Z,99.90
2019-03-17T21:28:53.780Z,99.90
2019-03-17T21:31:22.797Z,99.90
2019-03-17T21:33:51.688Z,99.90
2019-03-17T21:36:20.660Z,99.90
2019-03-17T21:38:49.494Z,99.90
2019-03-17T21:41:18.738Z,99.90
2019-03-17T21:43:58.772Z,99.90
2019-03-17T21:46:18.788Z,99.90
2019-03-17T21:48:47.537Z,99.90
2019-03-17T21:51:35.516Z,99.90
2019-03-17T21:54:04.404Z,99.90
2019-03-17T21:56:33.257Z,99.90
2019-03-17T21:59:02.180Z,99.90
2019-03-17T22:01:31.155Z,99.90
2019-03-17T22:03:59.907Z,99.90
2019-03-17T22:06:28.752Z,99.90
2019-03-17T22:08:58.193Z,99.90
2019-03-17T22:11:27.888Z,99.90
2019-03-17T22:13:57.396Z,99.90
2019-03-17T22:16:29.611Z,99.90
2019-03-17T22:18:58.272Z,99.90
2019-03-17T22:21:27.041Z,99.90
2019-03-17T22:23:55.829Z,99.90
2019-03-17T22:26:24.584Z,99.90
2019-03-17T22:28:53.504Z,99.90
2019-03-17T22:31:23.812Z,99.90
2019-03-17T22:33:52.908Z,99.90
2019-03-17T22:36:21.680Z,99.90
2019-03-17T22:38:50.586Z,99.90
2019-03-17T22:41:19.424Z,99.90
2019-03-17T22:43:48.464Z,99.90
2019-03-17T22:46:17.256Z,99.90
2019-03-17T22:48:46.088Z,99.90
2019-03-17T22:51:14.876Z,99.90
2019-03-17T22:53:43.891Z,99.90
2019-03-17T22:56:12.688Z,99.90
2019-03-17T22:58:41.484Z,99.90
2019-03-17T23:01:10.297Z,99.90
2019-03-17T23:03:40.540Z,99.90
2019-03-17T23:06:10.356Z,99.90
2019-03-17T23:08:39.824Z,99.90
2019-03-17T23:11:09.204Z,99.90
2019-03-17T23:13:39.160Z,99.90
2019-03-17T23:16:08.461Z,99.90
2019-03-17T23:18:37.182Z,99.90
2019-03-17T23:21:06.241Z,99.90
2019-03-17T23:23:35.016Z,99.90
2019-03-17T23:26:05.036Z,99.90
2019-03-17T23:28:34.360Z,99.90
2019-03-17T23:31:03.229Z,99.90
2019-03-17T23:33:32.372Z,99.90
2019-03-17T23:36:01.856Z,99.90
2019-03-17T23:38:30.732Z,99.90
2019-03-17T23:40:59.744Z,99.90
2019-03-17T23:43:31.608Z,99.90
2019-03-17T23:46:00.385Z,99.90
2019-03-17T23:48:29.294Z,99.90
2019-03-17T23:50:58.165Z,99.90
2019-03-17T23:53:27.048Z,99.90
2019-03-17T23:55:56.136Z,99.90
2019-03-17T23:58:24.980Z,99.90
